DLH1AC EDDN-EDDC
Flight info
| Callsign | DLH1AC |
|---|---|
| Flight time | N/A |
| Altitude | 19000 |
| Route | ERETO1G ERETO Z715 ABKIS Q240 DRN |
| Aircraft | A20N/M-SDE2E3FGHIRWXY/LB1 |
Departure
| Time | 2026-05-04 09:34 |
|---|---|
| Airport | Nuremberg Airport (EDDN) |
Arrival
| Time | N/A |
|---|---|
| Airport | Dresden Airport (EDDC) |
| Time | Latitude | Longitude | Altitude | Speed | Heading |
|---|---|---|---|---|---|
| 2026-05-04 08:54 | 49.49517 | 11.07853 | 1026 ft | 0 kts | 188° |
| 2026-05-04 09:25 | 49.49522 | 11.07854 | 1026 ft | 1 kts | 188° |
| 2026-05-04 09:25 | 49.49542 | 11.07859 | 1025 ft | 4 kts | 187° |
| 2026-05-04 09:26 | 49.49568 | 11.07854 | 1027 ft | 3 kts | 145° |
| 2026-05-04 09:26 | 49.49580 | 11.07830 | 1028 ft | 0 kts | 98° |
| 2026-05-04 09:29 | 49.49580 | 11.07833 | 1026 ft | 1 kts | 99° |
| 2026-05-04 09:29 | 49.49576 | 11.07863 | 1027 ft | 4 kts | 100° |
| 2026-05-04 09:29 | 49.49568 | 11.07927 | 1026 ft | 8 kts | 100° |
| 2026-05-04 09:29 | 49.49556 | 11.08022 | 1027 ft | 10 kts | 97° |
| 2026-05-04 09:30 | 49.49548 | 11.08146 | 1025 ft | 13 kts | 96° |
| 2026-05-04 09:30 | 49.49537 | 11.08293 | 1028 ft | 14 kts | 91° |
| 2026-05-04 09:30 | 49.49577 | 11.08350 | 1031 ft | 6 kts | 20° |
| 2026-05-04 09:30 | 49.49603 | 11.08393 | 1033 ft | 6 kts | 59° |
| 2026-05-04 09:31 | 49.49612 | 11.08453 | 1034 ft | 6 kts | 91° |
| 2026-05-04 09:31 | 49.49610 | 11.08527 | 1035 ft | 7 kts | 96° |
| 2026-05-04 09:31 | 49.49602 | 11.08616 | 1036 ft | 9 kts | 97° |
| 2026-05-04 09:31 | 49.49592 | 11.08723 | 1036 ft | 11 kts | 98° |
| 2026-05-04 09:32 | 49.49579 | 11.08851 | 1037 ft | 13 kts | 99° |
| 2026-05-04 09:32 | 49.49561 | 11.08996 | 1039 ft | 14 kts | 101° |
| 2026-05-04 09:34 | 49.49767 | 11.08798 | 1040 ft | 82 kts | 279° |
| 2026-05-04 09:34 | 49.49874 | 11.07749 | 1025 ft | 122 kts | 277° |
| 2026-05-04 09:34 | 49.50038 | 11.06240 | 1211 ft | 149 kts | 278° |
| 2026-05-04 09:34 | 49.50175 | 11.04661 | 1748 ft | 154 kts | 277° |
| 2026-05-04 09:35 | 49.50318 | 11.03001 | 2325 ft | 157 kts | 277° |
| 2026-05-04 09:35 | 49.50471 | 11.01320 | 2880 ft | 163 kts | 277° |
| 2026-05-04 09:35 | 49.50645 | 10.99507 | 3251 ft | 180 kts | 278° |
| 2026-05-04 09:35 | 49.50844 | 10.97483 | 3607 ft | 203 kts | 278° |
| 2026-05-04 09:37 | 49.61795 | 10.92737 | 7037 ft | 283 kts | 359° |
| 2026-05-04 09:37 | 49.63768 | 10.92795 | 7048 ft | 284 kts | 359° |
| 2026-05-04 09:38 | 49.65743 | 10.92847 | 7042 ft | 283 kts | 359° |
| 2026-05-04 09:38 | 49.67718 | 10.92895 | 7043 ft | 284 kts | 359° |
| 2026-05-04 09:38 | 49.69649 | 10.93217 | 7044 ft | 285 kts | 14° |
| 2026-05-04 09:38 | 49.71421 | 10.94571 | 7044 ft | 288 kts | 37° |
| 2026-05-04 09:39 | 49.72955 | 10.96584 | 7038 ft | 289 kts | 40° |
| 2026-05-04 09:39 | 49.74476 | 10.98613 | 7037 ft | 289 kts | 40° |
| 2026-05-04 09:39 | 49.75999 | 11.00637 | 7038 ft | 289 kts | 40° |
| 2026-05-04 09:39 | 49.77529 | 11.02662 | 7036 ft | 289 kts | 39° |
| 2026-05-04 09:40 | 49.79054 | 11.04682 | 7046 ft | 289 kts | 39° |
| 2026-05-04 09:40 | 49.80592 | 11.06719 | 7281 ft | 292 kts | 39° |
| 2026-05-04 09:40 | 49.82125 | 11.08751 | 8066 ft | 294 kts | 39° |
| 2026-05-04 09:40 | 49.83599 | 11.10960 | 9039 ft | 301 kts | 49° |
| 2026-05-04 09:41 | 49.84802 | 11.13773 | 9479 ft | 326 kts | 63° |
| 2026-05-04 09:42 | 49.92334 | 11.38217 | 14673 ft | 379 kts | 62° |
| 2026-05-04 09:43 | 49.93791 | 11.41641 | 15406 ft | 383 kts | 52° |
| 2026-05-04 09:43 | 49.95580 | 11.44720 | 16141 ft | 386 kts | 45° |
| 2026-05-04 09:43 | 49.97496 | 11.47678 | 16869 ft | 390 kts | 45° |
| 2026-05-04 09:43 | 49.99421 | 11.50682 | 17561 ft | 395 kts | 45° |
| 2026-05-04 09:44 | 50.01365 | 11.53730 | 18266 ft | 399 kts | 45° |
| 2026-05-04 09:44 | 50.03329 | 11.56816 | 18760 ft | 403 kts | 45° |
| 2026-05-04 09:44 | 50.05302 | 11.59918 | 18962 ft | 404 kts | 45° |
| 2026-05-04 09:46 | 50.18794 | 11.82422 | 19056 ft | 406 kts | 53° |
| 2026-05-04 09:46 | 50.20345 | 11.86100 | 19054 ft | 406 kts | 59° |
| 2026-05-04 09:46 | 50.21782 | 11.89781 | 19039 ft | 406 kts | 59° |
| 2026-05-04 09:47 | 50.23260 | 11.93536 | 19046 ft | 406 kts | 59° |
| 2026-05-04 09:47 | 50.24740 | 11.97290 | 19043 ft | 406 kts | 59° |
| 2026-05-04 09:49 | 50.35578 | 12.23177 | 19024 ft | 407 kts | 63° |
| 2026-05-04 09:49 | 50.36892 | 12.27102 | 19027 ft | 406 kts | 63° |
| 2026-05-04 09:49 | 50.38208 | 12.31014 | 19022 ft | 407 kts | 63° |
| 2026-05-04 09:51 | 50.46101 | 12.54568 | 19027 ft | 407 kts | 63° |
| 2026-05-04 09:51 | 50.47407 | 12.58491 | 19022 ft | 406 kts | 63° |
| 2026-05-04 09:51 | 50.48716 | 12.62430 | 19015 ft | 405 kts | 63° |
| 2026-05-04 09:51 | 50.50013 | 12.66336 | 19024 ft | 404 kts | 63° |
| 2026-05-04 09:52 | 50.51307 | 12.70243 | 19022 ft | 404 kts | 63° |
| 2026-05-04 09:52 | 50.52607 | 12.74170 | 19021 ft | 404 kts | 63° |
| 2026-05-04 09:52 | 50.53901 | 12.78087 | 19022 ft | 404 kts | 63° |
| 2026-05-04 09:52 | 50.55194 | 12.82006 | 19020 ft | 404 kts | 63° |
| 2026-05-04 09:53 | 50.56488 | 12.85937 | 19020 ft | 404 kts | 63° |
| 2026-05-04 09:53 | 50.57781 | 12.89868 | 19021 ft | 404 kts | 63° |
| 2026-05-04 09:53 | 50.59070 | 12.93794 | 19021 ft | 404 kts | 63° |
| 2026-05-04 09:53 | 50.60359 | 12.97724 | 19019 ft | 404 kts | 63° |
| 2026-05-04 09:54 | 50.61656 | 13.01653 | 19024 ft | 405 kts | 61° |
| 2026-05-04 09:54 | 50.63180 | 13.05307 | 19023 ft | 406 kts | 52° |
| 2026-05-04 09:54 | 50.65063 | 13.08605 | 19004 ft | 405 kts | 43° |
| 2026-05-04 09:54 | 50.67170 | 13.11556 | 18822 ft | 405 kts | 40° |
| 2026-05-04 09:55 | 50.69275 | 13.14475 | 18582 ft | 402 kts | 40° |
| 2026-05-04 09:55 | 50.71369 | 13.17393 | 18347 ft | 400 kts | 40° |
| 2026-05-04 09:55 | 50.73444 | 13.20316 | 18022 ft | 399 kts | 42° |
| 2026-05-04 09:55 | 50.75502 | 13.23248 | 17502 ft | 399 kts | 42° |
| 2026-05-04 09:56 | 50.77556 | 13.26162 | 16948 ft | 396 kts | 41° |
| 2026-05-04 09:56 | 50.79601 | 13.29042 | 16416 ft | 392 kts | 41° |
| 2026-05-04 09:56 | 50.81635 | 13.31895 | 15891 ft | 389 kts | 41° |
| 2026-05-04 09:56 | 50.83654 | 13.34723 | 15386 ft | 385 kts | 41° |
| 2026-05-04 09:57 | 50.85649 | 13.37517 | 19933 ft | 381 kts | 41° |
| 2026-05-04 09:57 | 50.87656 | 13.40329 | 18983 ft | 393 kts | 41° |
| 2026-05-04 09:57 | 50.89724 | 13.43236 | 18043 ft | 402 kts | 41° |
| 2026-05-04 09:57 | 50.91834 | 13.46210 | 17029 ft | 410 kts | 41° |
| 2026-05-04 09:58 | 50.93969 | 13.49223 | 16185 ft | 412 kts | 41° |
| 2026-05-04 09:58 | 50.96103 | 13.52235 | 15675 ft | 406 kts | 41° |
| 2026-05-04 09:58 | 50.98181 | 13.55172 | 15389 ft | 393 kts | 41° |
| 2026-05-04 10:00 | 51.15580 | 13.60813 | 13706 ft | 370 kts | 0° |
| 2026-05-04 10:00 | 51.18141 | 13.60976 | 13440 ft | 368 kts | 0° |
| 2026-05-04 10:02 | 51.35774 | 13.62108 | 10690 ft | 355 kts | 0° |
| 2026-05-04 10:04 | 51.44575 | 13.75814 | 8856 ft | 293 kts | 113° |
| 2026-05-04 10:04 | 51.43877 | 13.78861 | 8502 ft | 290 kts | 112° |
| 2026-05-04 10:04 | 51.43233 | 13.81913 | 8155 ft | 288 kts | 110° |
| 2026-05-04 10:04 | 51.42664 | 13.84977 | 7802 ft | 287 kts | 108° |
| 2026-05-04 10:05 | 51.42145 | 13.88058 | 7457 ft | 285 kts | 107° |
| 2026-05-04 10:05 | 51.41654 | 13.91125 | 7095 ft | 284 kts | 107° |
| 2026-05-04 10:05 | 51.41174 | 13.94192 | 6733 ft | 283 kts | 107° |
| 2026-05-04 10:05 | 51.40698 | 13.97242 | 6388 ft | 283 kts | 107° |
| 2026-05-04 10:06 | 51.40220 | 14.00300 | 6006 ft | 284 kts | 106° |
| 2026-05-04 10:06 | 51.39646 | 14.03316 | 5609 ft | 282 kts | 120° |
| 2026-05-04 10:06 | 51.38898 | 14.05033 | 5343 ft | 276 kts | 138° |
| 2026-05-04 10:08 | 51.29999 | 13.99759 | 5015 ft | 255 kts | 222° |
| 2026-05-04 10:08 | 51.28682 | 13.97910 | 5019 ft | 256 kts | 222° |
| 2026-05-04 10:08 | 51.27373 | 13.96073 | 5022 ft | 242 kts | 222° |
| 2026-05-04 10:08 | 51.26137 | 13.94354 | 5014 ft | 229 kts | 222° |
| 2026-05-04 10:09 | 51.24976 | 13.92743 | 5017 ft | 214 kts | 221° |
| 2026-05-04 10:09 | 51.23888 | 13.91243 | 5014 ft | 199 kts | 222° |
| 2026-05-04 10:09 | 51.22882 | 13.89847 | 5025 ft | 190 kts | 222° |
| 2026-05-04 10:09 | 51.21863 | 13.88437 | 5017 ft | 194 kts | 222° |
| 2026-05-04 10:10 | 51.20862 | 13.87053 | 5036 ft | 184 kts | 222° |
| 2026-05-04 10:10 | 51.19944 | 13.85783 | 5016 ft | 165 kts | 222° |
| 2026-05-04 10:10 | 51.19124 | 13.84650 | 5017 ft | 146 kts | 222° |
| 2026-05-04 10:10 | 51.18395 | 13.83628 | 4557 ft | 150 kts | 223° |
| 2026-05-04 10:11 | 51.17505 | 13.82388 | 3303 ft | 186 kts | 222° |
| 2026-05-04 10:11 | 51.16464 | 13.80935 | 1851 ft | 213 kts | 220° |
| 2026-05-04 10:11 | 51.15234 | 13.79480 | 997 ft | 214 kts | 216° |
| 2026-05-04 10:11 | 51.14184 | 13.78227 | 1336 ft | 160 kts | 217° |
| 2026-05-04 10:12 | 51.13205 | 13.77074 | 1752 ft | 188 kts | 217° |
| 2026-05-04 10:12 | 51.12133 | 13.75842 | 2613 ft | 190 kts | 216° |
| 2026-05-04 10:12 | 51.11065 | 13.74648 | 3585 ft | 186 kts | 215° |
| 2026-05-04 10:12 | 51.09996 | 13.73489 | 4559 ft | 186 kts | 214° |
| 2026-05-04 10:13 | 51.08934 | 13.72372 | 5522 ft | 181 kts | 214° |
| 2026-05-04 10:13 | 51.07864 | 13.71284 | 6209 ft | 185 kts | 214° |
| 2026-05-04 10:13 | 51.06751 | 13.70183 | 6764 ft | 191 kts | 214° |
| 2026-05-04 10:13 | 51.05608 | 13.69084 | 7376 ft | 193 kts | 213° |
| 2026-05-04 10:14 | 51.04425 | 13.67972 | 7740 ft | 211 kts | 212° |
| 2026-05-04 10:14 | 51.03181 | 13.66572 | 7502 ft | 222 kts | 226° |
| 2026-05-04 10:16 | 50.96321 | 13.53437 | 5357 ft | 257 kts | 211° |
| 2026-05-04 10:16 | 50.94923 | 13.51687 | 5021 ft | 256 kts | 227° |
| 2026-05-04 10:16 | 50.93655 | 13.49665 | 4673 ft | 256 kts | 220° |
| 2026-05-04 10:16 | 50.92333 | 13.47847 | 4331 ft | 253 kts | 221° |
| 2026-05-04 10:17 | 50.91000 | 13.46014 | 3984 ft | 256 kts | 220° |